Hamburg Helmut Schmidt Airport

EDDH · Hamburg, 德国

罗盘
风向 的 风向 的 风向 到 风向 140° Hamburg Airport 5/23
风: 9 kt, 3 beaufort


9 kt
改变
0 ft 1.000 2.000 3.000 4.000 5.000
CAVOK
METAR EDDH 021320Z AUTO 14009KT 110V170 CAVOK 12/06 Q1004 NOSIG

METAR Hamburg Airport - EDDH/HAM

Hamburg Airport是,德国中的大型机场。 该机场位于纬度53,63375和经度9,98530。 该机场有2条跑道: 5/23 和 15/33. 本场的ICAO机场代码为EDDH。 该机场的IATA代码为HAM。 机场在Bremen FIR中。

该航空气象观测是针对Hamburg Airport在2024年3月2日 14:20, 当地时间进行的。

机场观察

风向为140°,速度为9 kt。 风向在110°和170°之间变化。

天气为CAVOK。这意味着在5.000 ft或MSA(最低安全高度)以下(以较高者为准)以下没有云。这也意味着没有观测到积雨云或高耸的积云,可见度为10 km 或者更多或更高。此外,不会有雾,降雨或其他重要天气。

温度和风寒是12 °C。 露点为6 °C,相对湿度为67%。 海平面上的气压为1004 hPa (QNH)。

白天

今天,太阳从07:04升起,在17:59降落。 这适用于Hamburg Airport,世界夏令时可能有所不同。 当地时间与世界标准时间之间的时差为+1 小时。 当前,没有夏令时有效。

公司介绍

我们没有关于这个机场的公司信息。

体会

到Vliegles.nl去找飞行课程,跳伞和其他飞行体验。 浏览页面,了解Hamburg Airport附近所有可用的活动。 你也可以使用搜索功能来寻找你所在地附近的特定飞行课程、跳伞或其他飞行体验。

跑道

Id 标题 侧风 逆风 侧风 %
5/23 050°-230° 9 kt 100 %
15/33 153°-333° 2 kt 9 kt 22 %

逆风成分最大的方向会被突出显示,并用于横风计算。 这并不一定意味着这个方向在使用。

温度 & 天气

温度 12 °C
露点 6 °C
相对湿度 67%
Kp-index 0 (0-9)

白天

日出
07:04
中午
12:32
日落
17:59 (3:34)

小工具

你想在你的网站上有一个关于Hamburg Airport的当前航空天气(METAR)的小部件吗?

显示HTML代码
?>